Nice-Côte d'Azur Airport

LFMN · Département des Alpes-Maritimes, Région PACA, France

METAR anciennes LFMN · Aéroport de Nice Côte d'Azur

Tu vois ci-dessous les METAR des derniers jours. Sélectionne une année pour parcourir les METAR plus anciens, à partir de l'année 2007.

14 avril 2024

Temps Code Temps Temp. Vue Base cloud Vent METAR/SPECI
02:30
V
19 °C 10 km+ - 340° 340° 6 kt METAR LFMN 140030Z 34006KT CAVOK 19/10 Q1024 NOSIG
02:00
V
20 °C 10 km+ - 320° 320° 10 kt METAR LFMN 140000Z 32010KT CAVOK 20/09 Q1025 NOSIG
01:30
V
20 °C 10 km+ - 330° 330° 6 kt METAR LFMN 132330Z 33006KT CAVOK 20/10 Q1025 NOSIG
01:00
V
20 °C 10 km+ - 320° 320° 10 kt METAR LFMN 132300Z 32010KT CAVOK 20/10 Q1025 NOSIG
00:30
V
19 °C 10 km+ - 320° 320° 11 kt METAR LFMN 132230Z 32011KT CAVOK 19/10 Q1025 NOSIG
00:00
V
19 °C 10 km+ - 330° 330° 10 kt METAR LFMN 132200Z 33010KT CAVOK 19/11 Q1025 NOSIG

13 avril 2024

Temps Code Temps Temp. Vue Base cloud Vent METAR/SPECI
23:30
V
19 °C 10 km+ - 330° 330° 8 kt METAR LFMN 132130Z 33008KT CAVOK 19/12 Q1025 NOSIG
23:00
V
18 °C 10 km+ - 320° 320° 9 kt METAR LFMN 132100Z 32009KT CAVOK 18/12 Q1025 NOSIG
22:30
V
20 °C 10 km+ - 330° 330° 9 kt METAR LFMN 132030Z 33009KT CAVOK 20/12 Q1025 NOSIG
22:00
V
20 °C 10 km+ - 330° 330° 6 kt METAR LFMN 132000Z 33006KT CAVOK 20/12 Q1025 NOSIG
21:30
V
20 °C 10 km+ - 330° 330° 5 kt METAR LFMN 131930Z 33005KT CAVOK 20/12 Q1025 NOSIG
21:00
V
19 °C 10 km+ - Var Var 2 kt METAR LFMN 131900Z VRB02KT CAVOK 19/13 Q1025 NOSIG
20:30
V
19 °C 10 km+ - 240° 240° 3 kt METAR LFMN 131830Z 24003KT CAVOK 19/15 Q1025 NOSIG
20:00
V
19 °C 10 km+ - 240° 240° 2 kt METAR LFMN 131800Z 24002KT CAVOK 19/16 Q1025 NOSIG
19:30
V
20 °C 10 km+ - 190° 190° 2 kt METAR LFMN 131730Z 19002KT CAVOK 20/16 Q1025 NOSIG
19:00
V
20 °C 10 km+ - 180° 180° 3 kt METAR LFMN 131700Z 18003KT CAVOK 20/16 Q1025 NOSIG
18:30
V
21 °C 10 km+ - 150° 150° 3 kt METAR LFMN 131630Z 15003KT CAVOK 21/17 Q1025 NOSIG
18:00
V
21 °C 10 km+ - 130° 130° 3 kt METAR LFMN 131600Z 13003KT CAVOK 21/16 Q1025 NOSIG
17:30
V
21 °C 10 km+ - 110° 110° 3 kt METAR LFMN 131530Z 11003KT CAVOK 21/15 Q1025 NOSIG
17:00
V
21 °C 10 km+ - 120° 120° 3 kt METAR LFMN 131500Z 12003KT CAVOK 21/15 Q1025 NOSIG
16:30
V
21 °C 10 km+ - 140° 140° 4 kt METAR LFMN 131430Z 14004KT CAVOK 21/15 Q1025 NOSIG
16:00
V
21 °C 10 km+ - Var Var 3 kt METAR LFMN 131400Z VRB03KT CAVOK 21/13 Q1026 NOSIG
15:30
V
21 °C 10 km+ - Var Var 3 kt METAR LFMN 131330Z VRB03KT CAVOK 21/17 Q1026 NOSIG
15:00
V
21 °C 10 km+ - 160° 160° 3 kt METAR LFMN 131300Z 16003KT 120V180 CAVOK 21/17 Q1026 NOSIG
14:30
V
21 °C 10 km+ - 160° 160° 4 kt METAR LFMN 131230Z 16004KT CAVOK 21/16 Q1027 NOSIG
14:00
V
20 °C 10 km+ - 160° 160° 4 kt METAR LFMN 131200Z 16004KT CAVOK 20/16 Q1027 NOSIG
13:30
V
20 °C 10 km+ - 150° 150° 4 kt METAR LFMN 131130Z 15004KT CAVOK 20/15 Q1027 NOSIG
13:00
V
20 °C 10 km+ - 130° 130° 4 kt METAR LFMN 131100Z 13004KT CAVOK 20/14 Q1027 NOSIG
12:30
V
21 °C 10 km+ - 130° 130° 3 kt METAR LFMN 131030Z 13003KT CAVOK 21/13 Q1027 NOSIG
12:00
V
20 °C 10 km+ - 090° 090° 3 kt METAR LFMN 131000Z 09003KT 060V120 CAVOK 20/14 Q1027 NOSIG
11:30
V
20 °C 10 km+ - 090° 090° 4 kt METAR LFMN 130930Z 09004KT CAVOK 20/13 Q1027 NOSIG
11:00
V
20 °C 10 km+ - 080° 080° 4 kt METAR LFMN 130900Z 08004KT 050V110 CAVOK 20/12 Q1027 NOSIG
10:30
V
20 °C 10 km+ - 110° 110° 4 kt METAR LFMN 130830Z 11004KT CAVOK 20/11 Q1027 NOSIG
10:00
V
21 °C 10 km+ - 100° 100° 3 kt METAR LFMN 130800Z 10003KT CAVOK 21/10 Q1027 NOSIG
09:30
V
21 °C 10 km+ - 050° 050° 4 kt METAR LFMN 130730Z 05004KT CAVOK 21/10 Q1027 NOSIG
09:00
V
20 °C 10 km+ - 040° 040° 6 kt METAR LFMN 130700Z 04006KT CAVOK 20/08 Q1027 NOSIG
08:30
V
19 °C 10 km+ - 350° 350° 8 kt METAR LFMN 130630Z 35008KT CAVOK 19/08 Q1027 WS ALL RWY NOSIG
08:00
V
19 °C 10 km+ - 350° 350° 10 kt METAR LFMN 130600Z 35010KT CAVOK 19/08 Q1026 WS ALL RWY NOSIG
07:30
V
18 °C 10 km+ - 340° 340° 11 kt METAR LFMN 130530Z 34011KT CAVOK 18/08 Q1026 NOSIG
07:00
V
18 °C 10 km+ - 340° 340° 10 kt METAR LFMN 130500Z 34010KT CAVOK 18/08 Q1026 NOSIG
06:43
V
18 °C 10 km+ - 350° 350° 10 kt METAR LFMN 130443Z 35010KT CAVOK 18/07 Q1026 NOSIG
06:30
V
18 °C 10 km+ - 340° 340° 9 kt METAR LFMN 130430Z 34009KT CAVOK 18/08 Q1026 NOSIG
06:00
V
18 °C 10 km+ - 340° 340° 4 kt METAR LFMN 130400Z 34004KT 300V020 CAVOK 18/08 Q1026 NOSIG
05:30
V
18 °C 10 km+ - 360° 360° 4 kt METAR LFMN 130330Z 36004KT 320V020 CAVOK 18/07 Q1026 NOSIG
05:00
V
17 °C 10 km+ - 030° 030° 3 kt METAR LFMN 130300Z 03003KT CAVOK 17/08 Q1026 NOSIG
04:30
V
17 °C 10 km+ - 040° 040° 6 kt METAR LFMN 130230Z 04006KT CAVOK 17/09 Q1026 NOSIG
04:00
V
18 °C 10 km+ - 030° 030° 4 kt METAR LFMN 130200Z 03004KT CAVOK 18/08 Q1026 NOSIG
03:30
V
19 °C 10 km+ - 350° 350° 6 kt METAR LFMN 130130Z 35006KT 330V040 CAVOK 19/08 Q1026 NOSIG
03:00
V
19 °C 10 km+ - 340° 340° 7 kt METAR LFMN 130100Z 34007KT CAVOK 19/08 Q1026 NOSIG
02:30
V
19 °C 10 km+ - 010° 010° 5 kt METAR LFMN 130030Z 01005KT CAVOK 19/08 Q1026 NOSIG
02:00
V
19 °C 10 km+ - 340° 340° 7 kt METAR LFMN 130000Z 34007KT CAVOK 19/09 Q1026 NOSIG
01:30
V
20 °C 10 km+ - 340° 340° 8 kt METAR LFMN 122330Z 34008KT CAVOK 20/09 Q1026 NOSIG
01:00
V
20 °C 10 km+ - 330° 330° 6 kt METAR LFMN 122300Z 33006KT CAVOK 20/09 Q1026 NOSIG
00:30
V
19 °C 10 km+ - 330° 330° 7 kt METAR LFMN 122230Z 33007KT CAVOK 19/10 Q1026 NOSIG
00:00
V
19 °C 10 km+ - 330° 330° 8 kt METAR LFMN 122200Z 33008KT CAVOK 19/10 Q1026 NOSIG

12 avril 2024

Temps Code Temps Temp. Vue Base cloud Vent METAR/SPECI
23:30
V
19 °C 10 km+ - 330° 330° 8 kt METAR LFMN 122130Z 33008KT CAVOK 19/11 Q1026 NOSIG
23:00
V
20 °C 10 km+ - 330° 330° 8 kt METAR LFMN 122100Z 33008KT CAVOK 20/11 Q1026 NOSIG
22:30
V
19 °C 10 km+ - 330° 330° 9 kt METAR LFMN 122030Z 33009KT CAVOK 19/12 Q1026 NOSIG
22:00
V
20 °C 10 km+ - 330° 330° 9 kt METAR LFMN 122000Z 33009KT CAVOK 20/12 Q1026 NOSIG
21:30
V
19 °C 10 km+ - 330° 330° 7 kt METAR LFMN 121930Z 33007KT CAVOK 19/12 Q1026 NOSIG
21:00
V
20 °C 10 km+ - 320° 320° 5 kt METAR LFMN 121900Z 32005KT CAVOK 20/12 Q1026 NOSIG
20:30
V
19 °C 10 km+ - 220° 220° 3 kt METAR LFMN 121830Z 22003KT CAVOK 19/12 Q1026 NOSIG
20:00
V
19 °C 10 km+ - 180° 180° 2 kt METAR LFMN 121800Z 18002KT CAVOK 19/12 Q1026 NOSIG
19:30
V
20 °C 10 km+ - 360° 360° 0 kt METAR LFMN 121730Z 00000KT CAVOK 20/12 Q1026 NOSIG
19:00
V
20 °C 10 km+ - Var Var 2 kt METAR LFMN 121700Z VRB02KT CAVOK 20/14 Q1027 NOSIG
18:30
V
20 °C 10 km+ - Var Var 2 kt METAR LFMN 121630Z VRB02KT CAVOK 20/14 Q1027 NOSIG
18:00
V
21 °C 10 km+ - 200° 200° 4 kt METAR LFMN 121600Z 20004KT CAVOK 21/14 Q1027 NOSIG
17:30
V
21 °C 10 km+ - 200° 200° 5 kt METAR LFMN 121530Z 20005KT CAVOK 21/14 Q1027 NOSIG
17:00
V
21 °C 10 km+ - 180° 180° 3 kt METAR LFMN 121500Z 18003KT CAVOK 21/14 Q1027 NOSIG
16:30
V
21 °C 10 km+ - 190° 190° 4 kt METAR LFMN 121430Z 19004KT CAVOK 21/14 Q1027 NOSIG
16:00
V
21 °C 10 km+ - 170° 170° 4 kt METAR LFMN 121400Z 17004KT CAVOK 21/14 Q1028 NOSIG
15:30
V
21 °C 10 km+ - 160° 160° 3 kt METAR LFMN 121330Z 16003KT 130V190 CAVOK 21/13 Q1028 NOSIG
15:00
V
21 °C 10 km+ - 130° 130° 3 kt METAR LFMN 121300Z 13003KT 110V180 CAVOK 21/12 Q1028 NOSIG
14:30
V
21 °C 10 km+ - 110° 110° 3 kt METAR LFMN 121230Z 11003KT CAVOK 21/12 Q1028 NOSIG
14:00
V
21 °C 10 km+ - 110° 110° 3 kt METAR LFMN 121200Z 11003KT CAVOK 21/11 Q1028 NOSIG
13:30
V
21 °C 10 km+ - 130° 130° 3 kt METAR LFMN 121130Z 13003KT 090V150 CAVOK 21/12 Q1028 NOSIG
13:00
V
21 °C 10 km+ - Var Var 2 kt METAR LFMN 121100Z VRB02KT CAVOK 21/11 Q1029 NOSIG
12:30
V
21 °C 10 km+ - 140° 140° 3 kt METAR LFMN 121030Z 14003KT CAVOK 21/12 Q1029 NOSIG
12:06
V
20 °C 10 km+ - 130° 130° 4 kt METAR LFMN 121006Z 13004KT CAVOK 20/13 Q1029 NOSIG
11:30
V
19 °C 10 km+ - 140° 140° 4 kt METAR LFMN 120930Z 14004KT CAVOK 19/12 Q1029 NOSIG
11:00
V
19 °C 10 km+ - 140° 140° 3 kt METAR LFMN 120900Z 14003KT CAVOK 19/13 Q1028 NOSIG
10:30
V
21 °C 10 km+ - 100° 100° 2 kt METAR LFMN 120830Z 10002KT CAVOK 21/10 Q1028 NOSIG
10:00
V
20 °C 10 km+ - 330° 330° 5 kt METAR LFMN 120800Z 33005KT CAVOK 20/09 Q1028 NOSIG
09:30
V
19 °C 10 km+ - 330° 330° 8 kt METAR LFMN 120730Z 33008KT CAVOK 19/08 Q1028 NOSIG
09:00
V
18 °C 10 km+ - 330° 330° 7 kt METAR LFMN 120700Z 33007KT CAVOK 18/08 Q1028 NOSIG
08:30
V
17 °C 10 km+ - 340° 340° 8 kt METAR LFMN 120630Z 34008KT CAVOK 17/08 Q1028 NOSIG
08:00
V
16 °C 10 km+ - 340° 340° 7 kt METAR LFMN 120600Z 34007KT CAVOK 16/08 Q1028 NOSIG
07:30
V
16 °C 10 km+ - 340° 340° 8 kt METAR LFMN 120530Z 34008KT CAVOK 16/08 Q1028 NOSIG
07:00
V
16 °C 10 km+ - 340° 340° 7 kt METAR LFMN 120500Z 34007KT CAVOK 16/08 Q1027 NOSIG
06:30
V
16 °C 10 km+ - 340° 340° 8 kt METAR LFMN 120430Z 34008KT CAVOK 16/08 Q1027 NOSIG
06:00
V
16 °C 10 km+ - 340° 340° 7 kt METAR LFMN 120400Z 34007KT CAVOK 16/08 Q1027 NOSIG
05:30
V
16 °C 10 km+ - 340° 340° 8 kt METAR LFMN 120330Z 34008KT CAVOK 16/08 Q1027 NOSIG
05:00
V
16 °C 10 km+ - 340° 340° 8 kt METAR LFMN 120300Z 34008KT CAVOK 16/08 Q1027 NOSIG
04:30
V
16 °C 10 km+ - 340° 340° 7 kt METAR LFMN 120230Z 34007KT CAVOK 16/09 Q1027 NOSIG
04:00
V
16 °C 10 km+ - 330° 330° 9 kt METAR LFMN 120200Z 33009KT CAVOK 16/09 Q1027 NOSIG
03:30
V
16 °C 10 km+ - 330° 330° 9 kt METAR LFMN 120130Z 33009KT CAVOK 16/09 Q1027 NOSIG
03:00
V
17 °C 10 km+ - 330° 330° 12 kt METAR LFMN 120100Z 33012KT CAVOK 17/09 Q1027 NOSIG
02:30
V
17 °C 10 km+ - 330° 330° 11 kt METAR LFMN 120030Z 33011KT CAVOK 17/10 Q1027 NOSIG
02:00
V
17 °C 10 km+ - 310° 310° 3 kt METAR LFMN 120000Z 31003KT 210V020 CAVOK 17/10 Q1028 NOSIG
01:30
V
17 °C 10 km+ - 330° 330° 9 kt METAR LFMN 112330Z 33009KT CAVOK 17/10 Q1027 NOSIG
01:00
V
16 °C 10 km+ - 340° 340° 7 kt METAR LFMN 112300Z 34007KT CAVOK 16/10 Q1028 NOSIG
00:30
V
17 °C 10 km+ - 330° 330° 11 kt METAR LFMN 112230Z 33011KT CAVOK 17/10 Q1028 NOSIG
00:00
V
17 °C 10 km+ - 330° 330° 12 kt METAR LFMN 112200Z 33012KT CAVOK 17/10 Q1028 NOSIG

11 avril 2024

Temps Code Temps Temp. Vue Base cloud Vent METAR/SPECI
23:30
V
17 °C 10 km+ - 330° 330° 11 kt METAR LFMN 112130Z 33011KT CAVOK 17/10 Q1028 NOSIG
23:00
V
17 °C 10 km+ - 320° 320° 9 kt METAR LFMN 112100Z 32009KT CAVOK 17/10 Q1028 NOSIG
22:30
V
17 °C 10 km+ - 320° 320° 8 kt METAR LFMN 112030Z 32008KT CAVOK 17/10 Q1028 NOSIG
22:00
V
17 °C 10 km+ - 340° 340° 3 kt METAR LFMN 112000Z 34003KT 310V050 CAVOK 17/11 Q1028 NOSIG
21:30
V
18 °C 10 km+ - Var Var 2 kt METAR LFMN 111930Z VRB02KT CAVOK 18/11 Q1027 NOSIG
21:00
V
17 °C 10 km+ - 250° 250° 3 kt METAR LFMN 111900Z 25003KT CAVOK 17/12 Q1027 NOSIG
20:30
V
17 °C 10 km+ - 230° 230° 3 kt METAR LFMN 111830Z 23003KT CAVOK 17/12 Q1027 NOSIG
20:00
V
18 °C 10 km+ - 230° 230° 3 kt METAR LFMN 111800Z 23003KT CAVOK 18/12 Q1027 NOSIG
19:30
V
19 °C 10 km+ - 240° 240° 3 kt METAR LFMN 111730Z 24003KT CAVOK 19/12 Q1026 NOSIG
19:00
V
19 °C 10 km+ - Var Var 2 kt METAR LFMN 111700Z VRB02KT CAVOK 19/13 Q1026 NOSIG
18:30
V
20 °C 10 km+ - 190° 190° 4 kt METAR LFMN 111630Z 19004KT 160V220 CAVOK 20/13 Q1026 NOSIG
18:00
V
19 °C 10 km+ - 210° 210° 6 kt METAR LFMN 111600Z 21006KT CAVOK 19/13 Q1026 NOSIG
17:30
V
19 °C 10 km+ - 220° 220° 6 kt METAR LFMN 111530Z 22006KT CAVOK 19/14 Q1026 NOSIG
17:00
V
20 °C 10 km+ - 220° 220° 7 kt METAR LFMN 111500Z 22007KT CAVOK 20/13 Q1026 NOSIG
16:30
V
20 °C 10 km+ - 210° 210° 6 kt METAR LFMN 111430Z 21006KT CAVOK 20/13 Q1027 NOSIG
16:00
V
19 °C 10 km+ - 210° 210° 7 kt METAR LFMN 111400Z 21007KT CAVOK 19/12 Q1027 NOSIG
15:30
V
19 °C 10 km+ - 210° 210° 8 kt METAR LFMN 111330Z 21008KT CAVOK 19/13 Q1027 NOSIG
15:00
V
18 °C 10 km+ - 200° 200° 8 kt METAR LFMN 111300Z 20008KT CAVOK 18/14 Q1027 NOSIG
14:30
V
19 °C 10 km+ - 200° 200° 8 kt METAR LFMN 111230Z 20008KT CAVOK 19/14 Q1027 NOSIG
14:00
V
19 °C 10 km+ - 200° 200° 7 kt METAR LFMN 111200Z 20007KT 9999 FEW100 19/13 Q1027 NOSIG
13:30
V
18 °C 10 km+ - 200° 200° 7 kt METAR LFMN 111130Z 20007KT 9999 FEW100 18/14 Q1027 NOSIG
13:00
V
18 °C 10 km+ - 200° 200° 9 kt METAR LFMN 111100Z 20009KT 9999 FEW100 18/13 Q1027 NOSIG
12:30
V
17 °C 10 km+ - 200° 200° 8 kt METAR LFMN 111030Z 20008KT 9999 FEW083 17/12 Q1027 NOSIG
12:00
V
17 °C 10 km+ - 200° 200° 8 kt METAR LFMN 111000Z 20008KT 9999 FEW083 17/12 Q1027 NOSIG
11:30
V
17 °C 10 km+ - 190° 190° 8 kt METAR LFMN 110930Z 19008KT 9999 FEW083 17/11 Q1027 NOSIG
11:00
V
17 °C 10 km+ - 210° 210° 6 kt METAR LFMN 110900Z 21006KT 9999 SCT083 17/10 Q1026 NOSIG
10:30
V
17 °C 10 km+ - 240° 240° 6 kt METAR LFMN 110830Z 24006KT 210V270 9999 FEW076 17/09 Q1026 NOSIG
10:00
V
17 °C 10 km+ - 300° 300° 8 kt METAR LFMN 110800Z 30008KT 270V330 9999 FEW076 17/09 Q1026 NOSIG
09:30
V
15 °C 10 km+ - 310° 310° 10 kt METAR LFMN 110730Z 31010KT 9999 FEW076 15/10 Q1026 NOSIG
09:00
V
15 °C 10 km+ - 310° 310° 10 kt METAR LFMN 110700Z 31010KT 9999 FEW083 15/08 Q1025 NOSIG
08:30
V
15 °C 10 km+ - 320° 320° 10 kt METAR LFMN 110630Z 32010KT 9999 FEW083 15/08 Q1025 NOSIG
08:00
V
14 °C 10 km+ - 330° 330° 10 kt METAR LFMN 110600Z 33010KT 9999 FEW083 14/08 Q1025 NOSIG
Signaler les modifications